Dades meteomassalio
Diari Summary for Abril 14, 2017 Units:  Metric    English   Both
« Previous Day
Next Day »
Diari Semanal Mensual Anual Personalitzat
  Maxima: Minima: Mijana:
Temperatura: 28.6 °C 11.0 °C 20.3 °C
Rosada: 6.9 °C -0.5 °C 4 °C
Humitat: 62 % 20 % 38 %
Velocitat del vent: 29.6 km/h 0.0 km/h 5.9 km/h
Racha vent: 29.6 km/h - -
Vent:- - WSW
Pressio: 1017.2 hPa 1013.1 hPa -
Pluja: 0.0 mm    
Historical Graphs
 
 
Tabular Data for Abril 14, 2017
Time Temperature Dew Point Pressure Wind Wind Speed Wind Gust Humidity Rainfall Rate (Hourly) solar Conditions
00:06 15.7 °C 5.9 °C 1015.8 hPa Calm     52 % 0.0 mm 0.0 W/m2 CLR
00:11 15.7 °C 5.8 °C 1016.1 hPa Calm     52 % 0.0 mm 0.0 W/m2 CLR
00:16 15.6 °C 5.8 °C 1016.1 hPa Calm     52 % 0.0 mm 0.0 W/m2 CLR
00:21 15.6 °C 5.8 °C 1016.1 hPa Calm     52 % 0.0 mm 0.0 W/m2 CLR
00:26 15.7 °C 5.9 °C 1016.1 hPa Calm     52 % 0.0 mm 0.0 W/m2 CLR
00:31 15.7 °C 5.9 °C 1016.1 hPa Calm     52 % 0.0 mm 0.0 W/m2 CLR
00:36 15.8 °C 5.9 °C 1016.1 hPa Calm     52 % 0.0 mm 0.0 W/m2 CLR
00:41 15.8 °C 5.9 °C 1016.1 hPa Calm     52 % 0.0 mm 0.0 W/m2 CLR
00:51 15.6 °C 6.1 °C 1016.1 hPa Calm     53 % 0.0 mm 0.0 W/m2 CLR
00:56 15.5 °C 5.9 °C 1016.1 hPa Calm     53 % 0.0 mm 0.0 W/m2 CLR
01:01 15.3 °C 5.8 °C 1016.1 hPa Calm     53 % 0.0 mm 0.0 W/m2 CLR
01:06 15.2 °C 5.7 °C 1016.5 hPa Calm     53 % 0.0 mm 0.0 W/m2 CLR
01:11 15.3 °C 5.7 °C 1016.5 hPa Calm     53 % 0.0 mm 0.0 W/m2 CLR
01:17 15.3 °C 5.8 °C 1016.5 hPa Calm     53 % 0.0 mm 0.0 W/m2 CLR
01:22 15.2 °C 5.9 °C 1016.5 hPa Calm     54 % 0.0 mm 0.0 W/m2 CLR
01:27 14.9 °C 5.7 °C 1016.5 hPa Calm     54 % 0.0 mm 0.0 W/m2 CLR
01:32 14.8 °C 5.9 °C 1016.5 hPa Calm     55 % 0.0 mm 0.0 W/m2 CLR
01:37 14.8 °C 5.9 °C 1016.5 hPa Calm     55 % 0.0 mm 0.0 W/m2 CLR
01:42 14.7 °C 5.8 °C 1016.5 hPa Calm     55 % 0.0 mm 0.0 W/m2 CLR
01:47 14.6 °C 5.9 °C 1016.5 hPa Calm     56 % 0.0 mm 0.0 W/m2 CLR
01:52 14.4 °C 5.8 °C 1016.5 hPa Calm     56 % 0.0 mm 0.0 W/m2 CLR
01:57 14.6 °C 5.6 °C 1016.5 hPa Calm     55 % 0.0 mm 0.0 W/m2 CLR
02:02 14.8 °C 6.1 °C 1016.5 hPa Calm     56 % 0.0 mm 0.0 W/m2 CLR
02:07 14.6 °C 6.1 °C 1016.5 hPa Calm     57 % 0.0 mm 0.0 W/m2 CLR
02:12 14.2 °C 6.0 °C 1016.5 hPa Calm     58 % 0.0 mm 0.0 W/m2 CLR
02:17 13.9 °C 6.1 °C 1016.5 hPa Calm     59 % 0.0 mm 0.0 W/m2 CLR
02:22 13.8 °C 5.9 °C 1016.5 hPa Calm     59 % 0.0 mm 0.0 W/m2 CLR
02:27 13.9 °C 6.0 °C 1016.5 hPa Calm     59 % 0.0 mm 0.0 W/m2 CLR
02:32 14.1 °C 5.7 °C 1016.5 hPa Calm     57 % 0.0 mm 0.0 W/m2 CLR
02:37 14.4 °C 5.8 °C 1016.5 hPa Calm     56 % 0.0 mm 0.0 W/m2 CLR
02:42 14.6 °C 5.9 °C 1016.5 hPa Calm     56 % 0.0 mm 0.0 W/m2 CLR
02:47 14.6 °C 5.6 °C 1016.5 hPa Calm     55 % 0.0 mm 0.0 W/m2 CLR
02:52 14.5 °C 5.8 °C 1016.5 hPa Calm     56 % 0.0 mm 0.0 W/m2 CLR
02:57 14.3 °C 5.9 °C 1016.5 hPa Calm     57 % 0.0 mm 0.0 W/m2 CLR
03:07 13.7 °C 5.8 °C 1016.5 hPa Calm     59 % 0.0 mm 0.0 W/m2 CLR
03:12 13.4 °C 6.0 °C 1016.5 hPa Calm     61 % 0.0 mm 0.0 W/m2 CLR
03:17 13.1 °C 5.5 °C 1016.5 hPa Calm     60 % 0.0 mm 0.0 W/m2 CLR
03:22 13.2 °C 5.6 °C 1016.5 hPa Calm     60 % 0.0 mm 0.0 W/m2 CLR
03:27 13.3 °C 5.5 °C 1016.5 hPa Calm     59 % 0.0 mm 0.0 W/m2 CLR
03:32 13.5 °C 5.9 °C 1016.1 hPa Calm     60 % 0.0 mm 0.0 W/m2 CLR
03:37 13.3 °C 5.5 °C 1016.1 hPa Calm     59 % 0.0 mm 0.0 W/m2 CLR
03:38 13.3 °C 5.5 °C 1016.1 hPa Calm     59 % 0.0 mm 0.0 W/m2 CLR
03:43 13.8 °C 5.2 °C 1016.5 hPa WSW 5.6 km/h 5.6 km/h 56 % 0.0 mm 0.0 W/m2 CLR
03:48 14.0 °C 5.3 °C 1016.5 hPa WSW 3.7 km/h   56 % 0.0 mm 0.0 W/m2 CLR
03:53 13.9 °C 5.3 °C 1016.5 hPa Calm     56 % 0.0 mm 0.0 W/m2 CLR
03:58 13.9 °C 5.3 °C 1016.5 hPa Calm     56 % 0.0 mm 0.0 W/m2 CLR
04:03 14.2 °C 4.8 °C 1016.5 hPa WSW 5.6 km/h 5.6 km/h 53 % 0.0 mm 0.0 W/m2 CLR
04:08 14.5 °C 5.0 °C 1016.5 hPa Calm     53 % 0.0 mm 0.0 W/m2 CLR
04:18 14.3 °C 4.9 °C 1016.5 hPa Calm     53 % 0.0 mm 0.0 W/m2 CLR
04:23 14.2 °C 5.1 °C 1016.5 hPa Calm     54 % 0.0 mm 0.0 W/m2 CLR
04:28 13.9 °C 5.1 °C 1016.5 hPa Calm     55 % 0.0 mm 0.0 W/m2 CLR
04:33 13.7 °C 5.1 °C 1016.5 hPa Calm     56 % 0.0 mm 0.0 W/m2 CLR
04:38 13.6 °C 5.2 °C 1016.1 hPa Calm     57 % 0.0 mm 0.0 W/m2 CLR
04:48 12.9 °C 5.1 °C 1016.5 hPa Calm     59 % 0.0 mm 0.0 W/m2 CLR
04:53 12.6 °C 5.3 °C 1016.5 hPa Calm     61 % 0.0 mm 0.0 W/m2 CLR
04:58 12.3 °C 5.0 °C 1016.5 hPa Calm     61 % 0.0 mm 0.0 W/m2 CLR
05:03 12.2 °C 4.9 °C 1016.5 hPa Calm     61 % 0.0 mm 0.0 W/m2 CLR
05:08 12.1 °C 4.8 °C 1016.5 hPa Calm     61 % 0.0 mm 0.0 W/m2 CLR
05:13 12.1 °C 4.8 °C 1016.5 hPa Calm     61 % 0.0 mm 0.0 W/m2 CLR
05:18 12.1 °C 5.1 °C 1016.1 hPa Calm     62 % 0.0 mm 0.0 W/m2 CLR
05:23 12.0 °C 4.9 °C 1016.1 hPa Calm     62 % 0.0 mm 0.0 W/m2 CLR
05:28 11.9 °C 4.8 °C 1016.1 hPa Calm     62 % 0.0 mm 0.0 W/m2 CLR
05:33 11.8 °C 4.3 °C 1016.5 hPa Calm     60 % 0.0 mm 0.0 W/m2 CLR
05:38 12.0 °C 3.7 °C 1016.1 hPa Calm     57 % 0.0 mm 0.0 W/m2 CLR
05:43 12.2 °C 2.9 °C 1016.1 hPa West 1.9 km/h 1.9 km/h 53 % 0.0 mm 0.0 W/m2 CLR
05:48 13.2 °C 2.7 °C 1016.1 hPa West 13.0 km/h 13.0 km/h 49 % 0.0 mm 0.0 W/m2 CLR
05:53 14.3 °C 2.6 °C 1016.5 hPa WSW 9.3 km/h 9.3 km/h 45 % 0.0 mm 0.0 W/m2 CLR
05:58 14.6 °C 3.4 °C 1016.5 hPa WSW 1.9 km/h 1.9 km/h 47 % 0.0 mm 0.0 W/m2 CLR
06:03 14.3 °C 2.8 °C 1016.5 hPa West 8.0 km/h 8.0 km/h 46 % 0.0 mm 0.0 W/m2 CLR
06:08 14.1 °C 3.2 °C 1016.5 hPa WSW 5.6 km/h 5.6 km/h 48 % 0.0 mm 0.0 W/m2 CLR
06:13 14.0 °C 3.2 °C 1016.5 hPa West 5.6 km/h 5.6 km/h 48 % 0.0 mm 0.0 W/m2 CLR
06:18 13.9 °C 3.4 °C 1016.5 hPa West 8.0 km/h 8.0 km/h 49 % 0.0 mm 0.0 W/m2 CLR
06:23 13.8 °C 3.2 °C 1016.5 hPa SW 1.6 km/h 1.6 km/h 49 % 0.0 mm 0.0 W/m2 CLR
06:28 13.3 °C 2.8 °C 1016.5 hPa WSW 5.6 km/h 5.6 km/h 49 % 0.0 mm 0.0 W/m2 CLR
06:33 13.4 °C 2.3 °C 1016.5 hPa WSW 7.4 km/h 7.4 km/h 47 % 0.0 mm 0.0 W/m2 CLR
06:38 13.5 °C 2.1 °C 1016.1 hPa WSW 8.0 km/h 8.0 km/h 46 % 0.0 mm 0.0 W/m2 CLR
06:43 13.9 °C 2.2 °C 1016.5 hPa WSW 13.0 km/h 13.0 km/h 45 % 0.0 mm 0.0 W/m2 CLR
06:48 14.2 °C 2.1 °C 1016.5 hPa WSW 5.6 km/h 5.6 km/h 44 % 0.0 mm 0.0 W/m2 CLR
06:53 14.2 °C 2.4 °C 1016.5 hPa SW 5.6 km/h 5.6 km/h 45 % 0.0 mm 0.0 W/m2 CLR
06:58 13.8 °C 3.5 °C 1016.5 hPa Calm     50 % 0.0 mm 0.0 W/m2 CLR
07:03 13.1 °C 3.4 °C 1016.5 hPa WSW 3.7 km/h   52 % 0.0 mm 0.0 W/m2 CLR
07:08 12.5 °C 3.2 °C 1016.5 hPa Calm     53 % 0.0 mm 0.0 W/m2 CLR
07:13 12.1 °C 3.6 °C 1016.5 hPa Calm     56 % 0.0 mm 0.0 W/m2 OVC
07:18 11.6 °C 3.6 °C 1016.5 hPa Calm     58 % 0.0 mm 0.0 W/m2 OVC
07:23 11.3 °C 3.1 °C 1016.5 hPa Calm     57 % 0.0 mm 0.0 W/m2 OVC
07:28 11.2 °C 3.5 °C 1016.5 hPa Calm     59 % 0.0 mm 7.0 W/m2 BKN
07:33 11.1 °C 2.8 °C 1016.5 hPa Calm     57 % 0.0 mm 12.0 W/m2 BKN
07:38 11.1 °C 3.3 °C 1016.5 hPa Calm     59 % 0.0 mm 18.0 W/m2 BKN
07:43 11.0 °C 3.1 °C 1016.5 hPa Calm     58 % 0.0 mm 21.0 W/m2 BKN
07:48 11.0 °C 3.1 °C 1016.5 hPa Calm     58 % 0.0 mm 25.0 W/m2 BKN
07:53 11.1 °C 3.3 °C 1016.8 hPa Calm     59 % 0.0 mm 32.0 W/m2 BKN
07:58 11.1 °C 3.1 °C 1016.8 hPa Calm     58 % 0.0 mm 40.0 W/m2 BKN
08:03 11.1 °C 3.4 °C 1016.8 hPa Calm     59 % 0.0 mm 49.0 W/m2 SCT
08:08 11.3 °C 3.3 °C 1016.8 hPa Calm     58 % 0.0 mm 58.0 W/m2 SCT
08:13 11.5 °C 3.3 °C 1016.8 hPa Calm     57 % 0.0 mm 70.0 W/m2 FEW
08:18 11.8 °C 3.3 °C 1016.8 hPa Calm     56 % 0.0 mm 77.0 W/m2 FEW
08:23 12.1 °C 4.1 °C 1016.8 hPa Calm     58 % 0.0 mm 102.0 W/m2 FEW
08:28 12.5 °C 3.7 °C 1016.8 hPa Calm     55 % 0.0 mm 116.0 W/m2 CLR
08:33 12.9 °C 3.8 °C 1016.8 hPa Calm     54 % 0.0 mm 134.0 W/m2 CLR
08:38 13.2 °C 3.8 °C 1016.8 hPa Calm     53 % 0.0 mm 151.0 W/m2 CLR
08:48 13.9 °C 4.4 °C 1017.2 hPa Calm     53 % 0.0 mm 190.0 W/m2 CLR
08:53 14.3 °C 4.8 °C 1016.8 hPa Calm     53 % 0.0 mm 206.0 W/m2 CLR
08:58 14.7 °C 4.4 °C 1016.8 hPa Calm     50 % 0.0 mm 90.0 W/m2 CLR
09:03 15.1 °C 5.3 °C 1016.8 hPa Calm     52 % 0.0 mm 172.0 W/m2 CLR
09:08 15.6 °C 5.5 °C 1016.8 hPa Calm     51 % 0.0 mm 255.0 W/m2 CLR
09:13 16.3 °C 5.0 °C 1016.8 hPa West 5.6 km/h   47 % 0.0 mm 274.0 W/m2 CLR
09:19 17.5 °C 1.8 °C 1016.8 hPa WNW 25.9 km/h 25.9 km/h 35 % 0.0 mm 297.0 W/m2 CLR
09:24 19.0 °C 1.0 °C 1016.8 hPa West 20.4 km/h 20.4 km/h 30 % 0.0 mm 322.0 W/m2 CLR
09:29 19.7 °C 1.1 °C 1016.8 hPa WNW 22.2 km/h 22.2 km/h 29 % 0.0 mm 353.0 W/m2 CLR
09:34 20.0 °C 0.9 °C 1016.5 hPa WNW 25.9 km/h 25.9 km/h 28 % 0.0 mm 381.0 W/m2 CLR
09:39 20.3 °C 1.2 °C 1016.8 hPa WNW 18.5 km/h 18.5 km/h 28 % 0.0 mm 306.0 W/m2 CLR
09:44 20.3 °C 0.7 °C 1016.8 hPa WNW 29.6 km/h 29.6 km/h 27 % 0.0 mm 350.0 W/m2 CLR
09:49 20.3 °C 1.2 °C 1016.5 hPa West 24.1 km/h 24.1 km/h 28 % 0.0 mm 357.0 W/m2 CLR
09:54 20.3 °C 0.7 °C 1016.5 hPa WNW 14.8 km/h 14.8 km/h 27 % 0.0 mm 272.0 W/m2 CLR
09:59 20.3 °C 0.7 °C 1016.5 hPa WNW 24.1 km/h 24.1 km/h 27 % 0.0 mm 357.0 W/m2 CLR
10:04 20.5 °C 0.8 °C 1016.5 hPa West 20.4 km/h 20.4 km/h 27 % 0.0 mm 397.0 W/m2 CLR
10:09 20.7 °C 0.4 °C 1016.5 hPa WNW 17.7 km/h 17.7 km/h 26 % 0.0 mm 418.0 W/m2 CLR
10:14 20.8 °C 1.6 °C 1016.5 hPa NW 18.5 km/h 18.5 km/h 28 % 0.0 mm 410.0 W/m2 CLR
10:19 20.9 °C 0.7 °C 1016.8 hPa WNW 18.5 km/h 18.5 km/h 26 % 0.0 mm 457.0 W/m2 CLR
10:24 21.0 °C 0.2 °C 1016.8 hPa West 24.1 km/h 24.1 km/h 25 % 0.0 mm 461.0 W/m2 CLR
10:29 21.2 °C 0.9 °C 1016.8 hPa West 18.5 km/h 18.5 km/h 26 % 0.0 mm 482.0 W/m2 CLR
10:34 21.4 °C 0.6 °C 1016.8 hPa WNW 24.1 km/h 24.1 km/h 25 % 0.0 mm 401.0 W/m2 CLR
10:39 21.3 °C -0.1 °C 1016.8 hPa NW 24.1 km/h 24.1 km/h 24 % 0.0 mm 397.0 W/m2 CLR
10:44 21.3 °C -0.1 °C 1016.8 hPa NNW 14.8 km/h 14.8 km/h 24 % 0.0 mm 388.0 W/m2 CLR
10:49 21.5 °C 0.1 °C 1016.8 hPa NW 22.5 km/h 22.5 km/h 24 % 0.0 mm 478.0 W/m2 CLR
10:54 21.6 °C -0.5 °C 1016.8 hPa NW 16.1 km/h 16.1 km/h 23 % 0.0 mm 436.0 W/m2 CLR
10:59 21.6 °C 0.2 °C 1016.8 hPa WNW 22.2 km/h 22.2 km/h 24 % 0.0 mm 552.0 W/m2 CLR
11:04 21.8 °C 0.3 °C 1016.8 hPa NW 22.5 km/h 22.5 km/h 24 % 0.0 mm 388.0 W/m2 CLR
11:09 21.7 °C 0.2 °C 1016.8 hPa WNW 14.5 km/h 14.5 km/h 24 % 0.0 mm 455.0 W/m2 CLR
11:14 21.7 °C -0.3 °C 1016.8 hPa WNW 7.4 km/h 7.4 km/h 23 % 0.0 mm 401.0 W/m2 CLR
11:19 21.8 °C 0.9 °C 1016.8 hPa WNW 7.4 km/h 7.4 km/h 25 % 0.0 mm 578.0 W/m2 CLR
11:24 22.1 °C 1.1 °C 1016.8 hPa WNW 18.5 km/h 18.5 km/h 25 % 0.0 mm 550.0 W/m2 CLR
11:29 22.2 °C 2.3 °C 1016.8 hPa Calm     27 % 0.0 mm 468.0 W/m2 CLR
11:34 22.3 °C 1.9 °C 1016.8 hPa NNW 16.7 km/h 16.7 km/h 26 % 0.0 mm 578.0 W/m2 CLR
11:44 22.4 °C 2.0 °C 1016.8 hPa WNW 5.6 km/h 5.6 km/h 26 % 0.0 mm 531.0 W/m2 CLR
11:49 22.7 °C 1.7 °C 1016.8 hPa WNW 16.7 km/h 16.7 km/h 25 % 0.0 mm 626.0 W/m2 CLR
11:54 22.9 °C 1.3 °C 1016.8 hPa NNW 18.5 km/h 18.5 km/h 24 % 0.0 mm 622.0 W/m2 CLR
11:59 23.1 °C 1.4 °C 1016.8 hPa NNW 6.4 km/h 6.4 km/h 24 % 0.0 mm 745.0 W/m2 CLR
12:04 23.3 °C 0.9 °C 1016.5 hPa WNW 18.5 km/h 18.5 km/h 23 % 0.0 mm 686.0 W/m2 CLR
12:09 23.3 °C 1.0 °C 1016.5 hPa NW 18.5 km/h 18.5 km/h 23 % 0.0 mm 585.0 W/m2 CLR
12:14 23.4 °C 1.7 °C 1016.5 hPa NW 18.5 km/h 18.5 km/h 24 % 0.0 mm 650.0 W/m2 CLR
12:19 23.6 °C 1.2 °C 1016.5 hPa WNW 5.6 km/h 5.6 km/h 23 % 0.0 mm 721.0 W/m2 CLR
12:24 23.9 °C 0.9 °C 1016.5 hPa NW 17.7 km/h 17.7 km/h 22 % 0.0 mm 729.0 W/m2 CLR
12:29 24.0 °C 1.6 °C 1016.5 hPa WNW 19.3 km/h 19.3 km/h 23 % 0.0 mm 793.0 W/m2 CLR
12:34 24.1 °C 0.4 °C 1016.5 hPa NW 18.5 km/h 18.5 km/h 21 % 0.0 mm 724.0 W/m2 CLR
12:39 24.3 °C 2.4 °C 1016.5 hPa WNW 8.0 km/h 8.0 km/h 24 % 0.0 mm 768.0 W/m2 CLR
12:44 24.6 °C 1.4 °C 1016.5 hPa NW 7.4 km/h 7.4 km/h 22 % 0.0 mm 649.0 W/m2 CLR
12:49 24.7 °C 0.9 °C 1016.5 hPa NW 16.1 km/h 16.1 km/h 21 % 0.0 mm 675.0 W/m2 CLR
12:54 24.4 °C 0.7 °C 1016.5 hPa NNW 13.0 km/h 13.0 km/h 21 % 0.0 mm 721.0 W/m2 CLR
12:59 24.5 °C 1.4 °C 1016.5 hPa WNW 9.3 km/h 9.3 km/h 22 % 0.0 mm 575.0 W/m2 CLR
13:04 24.6 °C 1.4 °C 1016.1 hPa NNW 20.4 km/h 20.4 km/h 22 % 0.0 mm 766.0 W/m2 CLR
13:09 24.7 °C 0.9 °C 1016.1 hPa WNW 14.8 km/h 14.8 km/h 21 % 0.0 mm 795.0 W/m2 CLR
13:14 24.9 °C 1.1 °C 1016.1 hPa NW 18.5 km/h 18.5 km/h 21 % 0.0 mm 698.0 W/m2 CLR
13:24 24.8 °C 1.7 °C 1016.1 hPa NNW 3.7 km/h 3.7 km/h 22 % 0.0 mm 536.0 W/m2 CLR
13:29 24.8 °C 1.7 °C 1016.1 hPa NW 16.7 km/h 16.7 km/h 22 % 0.0 mm 650.0 W/m2 CLR
13:34 24.8 °C 1.6 °C 1016.1 hPa NNW 7.4 km/h 7.4 km/h 22 % 0.0 mm 294.0 W/m2 CLR
13:39 24.9 °C 2.3 °C 1016.1 hPa WNW 5.6 km/h 5.6 km/h 23 % 0.0 mm 731.0 W/m2 CLR
13:44 25.3 °C 2.1 °C 1016.1 hPa NNW 5.6 km/h 5.6 km/h 22 % 0.0 mm 939.0 W/m2 CLR
13:49 25.6 °C 2.3 °C 1015.8 hPa North 13.0 km/h 13.0 km/h 22 % 0.0 mm 476.0 W/m2 CLR
13:54 25.7 °C 2.3 °C 1015.8 hPa NW 13.0 km/h 13.0 km/h 22 % 0.0 mm 879.0 W/m2 CLR
13:59 25.8 °C 2.4 °C 1015.8 hPa WNW 14.8 km/h 14.8 km/h 22 % 0.0 mm 758.0 W/m2 CLR
14:04 25.8 °C 1.8 °C 1015.8 hPa West 5.6 km/h 5.6 km/h 21 % 0.0 mm 758.0 W/m2 CLR
14:10 26.0 °C 2.6 °C 1015.8 hPa WNW 5.6 km/h 8.0 km/h 22 % 0.0 mm 831.0 W/m2 CLR
14:15 26.3 °C 2.9 °C 1015.8 hPa NW 17.7 km/h 17.7 km/h 22 % 0.0 mm 874.0 W/m2 CLR
14:20 26.4 °C 1.6 °C 1015.5 hPa Calm     20 % 0.0 mm 823.0 W/m2 CLR
14:25 26.7 °C 3.2 °C 1015.5 hPa North 9.3 km/h 9.3 km/h 22 % 0.0 mm 846.0 W/m2 CLR
14:30 26.9 °C 3.4 °C 1015.5 hPa NNW 14.8 km/h 14.8 km/h 22 % 0.0 mm 744.0 W/m2 CLR
14:35 26.9 °C 3.4 °C 1015.5 hPa NW 6.4 km/h 6.4 km/h 22 % 0.0 mm 842.0 W/m2 CLR
14:40 27.1 °C 3.6 °C 1015.5 hPa West 5.6 km/h   22 % 0.0 mm 868.0 W/m2 CLR
14:45 27.3 °C 3.1 °C 1015.5 hPa North 3.7 km/h 3.7 km/h 21 % 0.0 mm 809.0 W/m2 CLR
14:50 27.5 °C 3.9 °C 1015.1 hPa Calm     22 % 0.0 mm 840.0 W/m2 CLR
14:55 27.8 °C 3.5 °C 1015.1 hPa NW 13.0 km/h 13.0 km/h 21 % 0.0 mm 795.0 W/m2 CLR
15:00 27.7 °C 4.7 °C 1015.1 hPa West 3.7 km/h 3.7 km/h 23 % 0.0 mm 772.0 W/m2 CLR
15:05 27.6 °C 3.9 °C 1014.8 hPa NNW 4.8 km/h 4.8 km/h 22 % 0.0 mm 791.0 W/m2 CLR
15:10 27.7 °C 4.0 °C 1014.8 hPa West 13.0 km/h 13.0 km/h 22 % 0.0 mm 809.0 W/m2 CLR
15:15 27.6 °C 3.9 °C 1014.8 hPa West 13.0 km/h 13.0 km/h 22 % 0.0 mm 802.0 W/m2 CLR
15:20 27.8 °C 4.8 °C 1014.8 hPa WNW 9.7 km/h 9.7 km/h 23 % 0.0 mm 819.0 W/m2 CLR
15:25 27.8 °C 3.4 °C 1014.8 hPa NW 5.6 km/h   21 % 0.0 mm 779.0 W/m2 CLR
15:30 27.8 °C 4.7 °C 1014.8 hPa West 8.0 km/h 8.0 km/h 23 % 0.0 mm 798.0 W/m2 CLR
15:35 27.9 °C 4.2 °C 1014.4 hPa West 7.4 km/h 7.4 km/h 22 % 0.0 mm 791.0 W/m2 CLR
15:40 28.0 °C 4.3 °C 1014.4 hPa NW 11.3 km/h 11.3 km/h 22 % 0.0 mm 782.0 W/m2 CLR
15:45 28.1 °C 3.7 °C 1014.4 hPa NNE 13.0 km/h 13.0 km/h 21 % 0.0 mm 765.0 W/m2 CLR
15:50 28.0 °C 3.6 °C 1014.1 hPa NNE 9.3 km/h 9.3 km/h 21 % 0.0 mm 742.0 W/m2 CLR
15:55 28.1 °C 4.4 °C 1014.1 hPa NE 11.1 km/h 11.1 km/h 22 % 0.0 mm 756.0 W/m2 CLR
16:00 28.2 °C 3.8 °C 1014.1 hPa NE 9.7 km/h 9.7 km/h 21 % 0.0 mm 745.0 W/m2 CLR
16:05 28.5 °C 4.7 °C 1014.1 hPa NNE 12.9 km/h 12.9 km/h 22 % 0.0 mm 735.0 W/m2 CLR
16:10 28.4 °C 4.0 °C 1014.1 hPa North 13.0 km/h 13.0 km/h 21 % 0.0 mm 671.0 W/m2 CLR
16:15 28.1 °C 4.4 °C 1014.1 hPa NNE 5.6 km/h 5.6 km/h 22 % 0.0 mm 694.0 W/m2 CLR
16:20 28.2 °C 4.4 °C 1013.8 hPa ENE 5.6 km/h 5.6 km/h 22 % 0.0 mm 705.0 W/m2 CLR
16:25 28.3 °C 3.8 °C 1013.8 hPa NNE 11.1 km/h 11.1 km/h 21 % 0.0 mm 698.0 W/m2 CLR
16:30 28.3 °C 3.9 °C 1013.8 hPa NNW 13.0 km/h 13.0 km/h 21 % 0.0 mm 684.0 W/m2 CLR
16:35 28.3 °C 4.6 °C 1013.8 hPa Calm     22 % 0.0 mm 668.0 W/m2 CLR
16:40 28.6 °C 4.1 °C 1013.8 hPa NE 8.0 km/h 8.0 km/h 21 % 0.0 mm 615.0 W/m2 CLR
16:50 28.5 °C 4.1 °C 1013.4 hPa North 3.7 km/h 3.7 km/h 21 % 0.0 mm 624.0 W/m2 CLR
16:55 28.4 °C 3.9 °C 1013.4 hPa North 1.9 km/h   21 % 0.0 mm 606.0 W/m2 CLR
17:00 28.5 °C 4.1 °C 1013.4 hPa NNE 18.5 km/h 18.5 km/h 21 % 0.0 mm 592.0 W/m2 CLR
17:05 28.5 °C 4.1 °C 1013.4 hPa NNE 18.5 km/h 18.5 km/h 21 % 0.0 mm 582.0 W/m2 CLR
17:10 28.4 °C 4.6 °C 1013.4 hPa NNW 14.8 km/h 14.8 km/h 22 % 0.0 mm 584.0 W/m2 CLR
17:15 28.4 °C 4.6 °C 1013.4 hPa NNE 1.9 km/h 1.9 km/h 22 % 0.0 mm 561.0 W/m2 CLR
17:20 28.5 °C 4.1 °C 1013.4 hPa NW 14.8 km/h 14.8 km/h 21 % 0.0 mm 547.0 W/m2 CLR
17:25 28.4 °C 4.0 °C 1013.4 hPa NW 18.5 km/h 18.5 km/h 21 % 0.0 mm 524.0 W/m2 CLR
17:30 28.4 °C 4.0 °C 1013.1 hPa NNE 5.6 km/h 5.6 km/h 21 % 0.0 mm 522.0 W/m2 CLR
17:35 28.5 °C 4.1 °C 1013.1 hPa North 5.6 km/h 5.6 km/h 21 % 0.0 mm 510.0 W/m2 CLR
17:40 28.6 °C 4.1 °C 1013.1 hPa North 5.6 km/h 5.6 km/h 21 % 0.0 mm 494.0 W/m2 CLR
17:45 28.5 °C 4.1 °C 1013.1 hPa North 20.4 km/h 20.4 km/h 21 % 0.0 mm 464.0 W/m2 CLR
17:50 28.4 °C 4.6 °C 1013.1 hPa North 14.8 km/h 14.8 km/h 22 % 0.0 mm 436.0 W/m2 CLR
17:55 28.4 °C 4.0 °C 1013.1 hPa North 18.5 km/h 18.5 km/h 21 % 0.0 mm 443.0 W/m2 CLR
18:00 28.4 °C 3.9 °C 1013.1 hPa NNW 18.5 km/h 18.5 km/h 21 % 0.0 mm 424.0 W/m2 CLR
18:05 28.3 °C 3.2 °C 1013.1 hPa NNW 13.0 km/h 13.0 km/h 20 % 0.0 mm 401.0 W/m2 CLR
18:10 28.2 °C 3.8 °C 1013.1 hPa North 3.7 km/h 3.7 km/h 21 % 0.0 mm 367.0 W/m2 CLR
18:15 28.2 °C 3.8 °C 1013.1 hPa NNE 14.5 km/h 14.5 km/h 21 % 0.0 mm 383.0 W/m2 CLR
18:21 28.3 °C 3.2 °C 1013.1 hPa NNE 14.8 km/h 14.8 km/h 20 % 0.0 mm 359.0 W/m2 CLR
18:26 28.2 °C 3.8 °C 1013.1 hPa NNE 3.7 km/h 3.7 km/h 21 % 0.0 mm 357.0 W/m2 CLR
18:31 28.2 °C 3.8 °C 1013.1 hPa NNW 13.0 km/h 13.0 km/h 21 % 0.0 mm 327.0 W/m2 CLR
18:36 28.3 °C 3.8 °C 1013.1 hPa ENE 4.8 km/h 4.8 km/h 21 % 0.0 mm 313.0 W/m2 CLR
18:41 28.3 °C 3.2 °C 1013.1 hPa NE 14.8 km/h 14.8 km/h 20 % 0.0 mm 299.0 W/m2 CLR
18:46 28.2 °C 3.8 °C 1013.1 hPa NNE 13.0 km/h 13.0 km/h 21 % 0.0 mm 279.0 W/m2 CLR
18:51 28.1 °C 3.7 °C 1013.1 hPa North 3.7 km/h 3.7 km/h 21 % 0.0 mm 251.0 W/m2 CLR
18:56 28.1 °C 3.7 °C 1013.1 hPa NW 9.3 km/h 9.3 km/h 21 % 0.0 mm 232.0 W/m2 CLR
19:01 27.9 °C 3.6 °C 1013.1 hPa Calm     21 % 0.0 mm 207.0 W/m2 CLR
19:06 28.1 °C 4.3 °C 1013.1 hPa Calm     22 % 0.0 mm 197.0 W/m2 CLR
19:11 28.1 °C 3.7 °C 1013.1 hPa Calm     21 % 0.0 mm 91.0 W/m2 CLR
19:16 27.9 °C 3.6 °C 1013.1 hPa NNE 3.7 km/h 3.7 km/h 21 % 0.0 mm 109.0 W/m2 CLR
19:21 27.7 °C 4.1 °C 1013.1 hPa Calm     22 % 0.0 mm 185.0 W/m2 CLR
19:26 27.6 °C 3.3 °C 1013.1 hPa Calm     21 % 0.0 mm 188.0 W/m2 CLR
19:31 27.6 °C 3.9 °C 1013.1 hPa Calm     22 % 0.0 mm 165.0 W/m2 CLR
19:36 27.6 °C 3.9 °C 1013.1 hPa Calm     22 % 0.0 mm 90.0 W/m2 CLR
19:41 27.5 °C 3.2 °C 1013.1 hPa Calm     21 % 0.0 mm 76.0 W/m2 CLR
19:42 27.5 °C 3.2 °C 1013.1 hPa Calm     21 % 0.0 mm 76.0 W/m2 FEW
19:47 27.5 °C 4.5 °C 1013.1 hPa Calm     23 % 0.0 mm 72.0 W/m2 FEW
19:52 27.4 °C 4.4 °C 1013.1 hPa Calm     23 % 0.0 mm 79.0 W/m2 FEW
19:57 27.4 °C 3.8 °C 1013.1 hPa Calm     22 % 0.0 mm 63.0 W/m2 SCT
20:02 27.3 °C 4.4 °C 1013.1 hPa Calm     23 % 0.0 mm 56.0 W/m2 SCT
20:07 27.2 °C 4.9 °C 1013.1 hPa Calm     24 % 0.0 mm 49.0 W/m2 SCT
20:12 26.6 °C 4.9 °C 1013.1 hPa SE 9.3 km/h 9.3 km/h 25 % 0.0 mm 37.0 W/m2 BKN
20:17 26.2 °C 5.2 °C 1013.1 hPa SSE 5.6 km/h 5.6 km/h 26 % 0.0 mm 23.0 W/m2 BKN
20:22 25.9 °C 5.5 °C 1013.1 hPa SE 6.4 km/h 6.4 km/h 27 % 0.0 mm 21.0 W/m2 BKN
20:27 25.8 °C 5.3 °C 1013.1 hPa Calm     27 % 0.0 mm 12.0 W/m2 BKN
20:32 25.6 °C 5.7 °C 1013.1 hPa Calm     28 % 0.0 mm 7.0 W/m2 BKN
20:37 25.3 °C 6.0 °C 1013.4 hPa SSE 5.6 km/h 5.6 km/h 29 % 0.0 mm 0.0 W/m2 OVC
20:47 24.8 °C 6.5 °C 1013.4 hPa Calm     31 % 0.0 mm 0.0 W/m2 OVC
20:52 24.3 °C 6.6 °C 1013.4 hPa Calm     32 % 0.0 mm 0.0 W/m2 CLR
20:57 23.9 °C 6.6 °C 1013.8 hPa Calm     33 % 0.0 mm 0.0 W/m2 CLR
21:02 23.4 °C 6.2 °C 1013.8 hPa Calm     33 % 0.0 mm 0.0 W/m2 CLR
21:07 23.2 °C 6.4 °C 1013.8 hPa Calm     34 % 0.0 mm 0.0 W/m2 CLR
21:12 23.0 °C 6.3 °C 1013.8 hPa Calm     34 % 0.0 mm 0.0 W/m2 CLR
21:17 22.8 °C 6.2 °C 1014.1 hPa Calm     34 % 0.0 mm 0.0 W/m2 CLR
21:22 22.7 °C 6.1 °C 1014.1 hPa Calm     34 % 0.0 mm 0.0 W/m2 CLR
21:27 22.6 °C 5.9 °C 1014.1 hPa Calm     34 % 0.0 mm 0.0 W/m2 CLR
21:32 22.4 °C 6.2 °C 1014.1 hPa Calm     35 % 0.0 mm 0.0 W/m2 CLR
21:37 22.1 °C 6.7 °C 1014.4 hPa Calm     37 % 0.0 mm 0.0 W/m2 CLR
21:42 21.6 °C 6.3 °C 1014.4 hPa Calm     37 % 0.0 mm 0.0 W/m2 CLR
21:47 21.1 °C 6.6 °C 1014.4 hPa Calm     39 % 0.0 mm 0.0 W/m2 CLR
21:52 20.6 °C 6.9 °C 1014.4 hPa Calm     41 % 0.0 mm 0.0 W/m2 CLR
21:58 20.1 °C 6.4 °C 1014.8 hPa West 3.7 km/h 3.7 km/h 41 % 0.0 mm 0.0 W/m2 CLR
22:03 19.7 °C 6.4 °C 1014.8 hPa Calm     42 % 0.0 mm 0.0 W/m2 CLR
22:08 19.4 °C 6.6 °C 1014.8 hPa Calm     43 % 0.0 mm 0.0 W/m2 CLR
22:13 19.2 °C 6.9 °C 1015.1 hPa Calm     45 % 0.0 mm 0.0 W/m2 CLR
22:18 18.7 °C 6.5 °C 1015.1 hPa Calm     45 % 0.0 mm 0.0 W/m2 CLR
22:23 18.5 °C 6.3 °C 1015.1 hPa Calm     45 % 0.0 mm 0.0 W/m2 CLR
22:28 18.2 °C 6.3 °C 1015.5 hPa Calm     46 % 0.0 mm 0.0 W/m2 CLR
22:33 18.1 °C 6.6 °C 1015.1 hPa SW 11.3 km/h 11.3 km/h 47 % 0.0 mm 0.0 W/m2 CLR
22:38 17.8 °C 6.3 °C 1015.1 hPa Calm   0.5 km/h 47 % 0.0 mm 0.0 W/m2 CLR
22:43 18.4 °C 6.6 °C 1015.1 hPa NW 5.6 km/h   46 % 0.0 mm 0.0 W/m2 CLR
22:48 18.7 °C 6.2 °C 1015.5 hPa SW 5.6 km/h 5.6 km/h 44 % 0.0 mm 0.0 W/m2 CLR
22:53 19.0 °C 6.4 °C 1015.5 hPa Calm     44 % 0.0 mm 0.0 W/m2 CLR
22:58 18.8 °C 6.6 °C 1015.5 hPa Calm     45 % 0.0 mm 0.0 W/m2 CLR
23:03 18.6 °C 6.8 °C 1015.5 hPa Calm     46 % 0.0 mm 0.0 W/m2 CLR
23:08 18.4 °C 6.6 °C 1015.5 hPa Calm     46 % 0.0 mm 0.0 W/m2 CLR
23:13 18.3 °C 6.4 °C 1015.5 hPa WSW 3.2 km/h 3.2 km/h 46 % 0.0 mm 0.0 W/m2 CLR
23:18 18.4 °C 6.3 °C 1015.5 hPa SW 1.9 km/h   45 % 0.0 mm 0.0 W/m2 CLR
23:23 18.4 °C 6.3 °C 1015.5 hPa Calm     45 % 0.0 mm 0.0 W/m2 CLR
23:28 18.3 °C 6.1 °C 1015.5 hPa Calm     45 % 0.0 mm 0.0 W/m2 CLR
23:33 18.1 °C 6.0 °C 1015.5 hPa Calm   0.5 km/h 45 % 0.0 mm 0.0 W/m2 CLR
23:38 17.9 °C 6.2 °C 1015.5 hPa WSW 4.8 km/h 4.8 km/h 46 % 0.0 mm 0.0 W/m2 CLR
23:43 17.7 °C 6.2 °C 1015.5 hPa WSW 5.6 km/h 5.6 km/h 47 % 0.0 mm 0.0 W/m2 CLR
23:48 18.0 °C 5.9 °C 1015.5 hPa WSW 9.3 km/h 9.3 km/h 45 % 0.0 mm 0.0 W/m2 CLR
23:53 18.6 °C 6.4 °C 1015.8 hPa Calm     45 % 0.0 mm 0.0 W/m2 CLR
23:58 18.2 °C 6.1 °C 1015.8 hPa WSW 5.6 km/h 5.6 km/h 45 % 0.0 mm 0.0 W/m2 CLR
Lo Temps de Massalio
Compliments of Weather Underground - 1.25 mb